Time;durP1;ratioP1;P1;durP2;ratioP2;P2;SDS_P1;SDS_P2;PMS_P1;PMS_P2;Temp;Humidity;BMP_temperature;BMP_pressure;BME280_temperature;BME280_humidity;BME280_pressure;Samples;Min_cycle;Max_cycle;Signal;HPM_P1;HPM_P2
2023/07/05 00:01:47;;;;;;;2.78;1.85;;;;;;;;;;5049548;28;20033;-77
2023/07/05 00:04:13;;;;;;;2.22;1.65;;;;;;;;;;5051921;28;20539;-78
2023/07/05 00:06:39;;;;;;;2.60;1.70;;;;;;;;;;5050038;28;20029;-78
2023/07/05 00:09:05;;;;;;;3.13;1.80;;;;;;;;;;5054898;28;20047;-78
2023/07/05 00:11:31;;;;;;;2.05;1.48;;;;;;;;;;5054632;28;20423;-78
2023/07/05 00:13:57;;;;;;;2.35;1.67;;;;;;;;;;5044504;28;20032;-77
2023/07/05 00:16:22;;;;;;;5.00;2.25;;;;;;;;;;5055554;28;20021;-77
2023/07/05 00:18:48;;;;;;;3.33;1.90;;;;;;;;;;5060565;28;20020;-78
2023/07/05 00:21:14;;;;;;;2.05;1.65;;;;;;;;;;5056938;28;20029;-78
2023/07/05 00:23:44;;;;;;;2.58;1.85;;;;;;;;;;5055811;28;20081;-78
2023/07/05 00:26:10;;;;;;;1.98;1.60;;;;;;;;;;5048782;28;20016;-78
2023/07/05 00:28:36;;;;;;;4.28;1.50;;;;;;;;;;5051454;28;20426;-78
2023/07/05 00:31:05;;;;;;;2.22;1.65;;;;;;;;;;5053705;28;20259;-78
2023/07/05 00:33:31;;;;;;;2.92;1.50;;;;;;;;;;5053637;28;20068;-78
2023/07/05 00:35:57;;;;;;;2.42;1.50;;;;;;;;;;5057682;28;20403;-78
2023/07/05 00:38:24;;;;;;;1.52;1.30;;;;;;;;;;5055128;28;20032;-78
2023/07/05 00:40:51;;;;;;;3.63;1.67;;;;;;;;;;5054145;28;20076;-78
2023/07/05 00:43:17;;;;;;;6.63;2.08;;;;;;;;;;5045037;28;20512;-78
2023/07/05 00:45:53;;;;;;;2.42;1.60;;;;;;;;;;5054045;28;20104;-79
2023/07/05 00:48:21;;;;;;;3.83;2.05;;;;;;;;;;5061584;28;20048;-78
2023/07/05 00:50:49;;;;;;;2.63;1.77;;;;;;;;;;5048098;28;20026;-78
2023/07/05 00:53:16;;;;;;;1.85;1.58;;;;;;;;;;5058145;28;20111;-78
2023/07/05 00:55:46;;;;;;;5.63;1.92;;;;;;;;;;5054302;28;20419;-78
2023/07/05 00:58:12;;;;;;;3.20;1.70;;;;;;;;;;5054687;28;20127;-78
2023/07/05 01:00:38;;;;;;;2.15;1.60;;;;;;;;;;5057350;28;20029;-78
2023/07/05 01:03:07;;;;;;;2.60;1.70;;;;;;;;;;5052612;28;20031;-77
2023/07/05 01:05:33;;;;;;;2.25;1.67;;;;;;;;;;5045326;28;20956;-77
2023/07/05 01:07:59;;;;;;;4.30;2.00;;;;;;;;;;5050678;28;20092;-77
2023/07/05 01:10:26;;;;;;;2.88;1.60;;;;;;;;;;5039124;28;20032;-78
2023/07/05 01:13:03;;;;;;;3.53;1.75;;;;;;;;;;5049888;28;20037;-79
2023/07/05 01:15:32;;;;;;;8.40;1.67;;;;;;;;;;5050286;28;20428;-78
2023/07/05 01:18:17;;;;;;;1.58;1.48;;;;;;;;;;5044200;28;20024;-79
2023/07/05 01:21:01;;;;;;;1.95;1.58;;;;;;;;;;5054477;28;20495;-78
2023/07/05 01:23:36;;;;;;;3.58;1.65;;;;;;;;;;5036024;28;20120;-78
2023/07/05 01:26:17;;;;;;;2.72;1.70;;;;;;;;;;5042954;28;20480;-78
2023/07/05 01:28:56;;;;;;;2.97;1.65;;;;;;;;;;5053069;28;20029;-79
2023/07/05 01:31:30;;;;;;;1.67;1.52;;;;;;;;;;5035481;28;20035;-78
2023/07/05 01:34:20;;;;;;;3.65;2.05;;;;;;;;;;5063627;28;20043;-77
2023/07/05 01:36:46;;;;;;;2.30;1.70;;;;;;;;;;5038863;28;20021;-78
2023/07/05 01:39:12;;;;;;;3.20;1.80;;;;;;;;;;5041124;28;20029;-78
2023/07/05 01:41:38;;;;;;;2.80;1.90;;;;;;;;;;5064754;28;20032;-78
2023/07/05 01:44:04;;;;;;;3.22;1.55;;;;;;;;;;5050588;28;20040;-78
2023/07/05 01:46:34;;;;;;;1.63;1.50;;;;;;;;;;5041016;28;20425;-78
2023/07/05 01:49:04;;;;;;;2.33;1.58;;;;;;;;;;5051693;28;20032;-79
2023/07/05 01:51:49;;;;;;;2.70;1.52;;;;;;;;;;5045088;28;20115;-78
2023/07/05 01:54:27;;;;;;;1.67;1.35;;;;;;;;;;5042508;28;20033;-79
2023/07/05 01:56:59;;;;;;;2.25;1.60;;;;;;;;;;5035243;28;20104;-78
2023/07/05 01:59:28;;;;;;;1.60;1.10;;;;;;;;;;5040734;28;20030;-78
2023/07/05 02:01:58;;;;;;;3.00;1.52;;;;;;;;;;5050401;28;20036;-79
2023/07/05 02:04:24;;;;;;;3.72;1.70;;;;;;;;;;5047649;28;20024;-78
2023/07/05 02:06:51;;;;;;;2.15;1.65;;;;;;;;;;5047487;28;20025;-78
2023/07/05 02:09:17;;;;;;;2.88;1.60;;;;;;;;;;5047909;28;20052;-78
2023/07/05 02:11:43;;;;;;;3.38;2.15;;;;;;;;;;5046392;28;20364;-79
2023/07/05 02:14:10;;;;;;;2.65;1.63;;;;;;;;;;5047895;28;20025;-79
2023/07/05 02:16:38;;;;;;;2.05;1.40;;;;;;;;;;5047242;28;20356;-79
2023/07/05 02:19:04;;;;;;;2.38;1.70;;;;;;;;;;5047408;28;20389;-79
2023/07/05 02:21:30;;;;;;;3.67;1.67;;;;;;;;;;5046963;28;20108;-78
2023/07/05 02:23:56;;;;;;;1.70;1.40;;;;;;;;;;5048420;28;20044;-79
2023/07/05 02:26:22;;;;;;;2.50;1.50;;;;;;;;;;5046449;28;20075;-78
2023/07/05 02:28:48;;;;;;;2.15;1.52;;;;;;;;;;5047661;28;20472;-79
2023/07/05 02:31:15;;;;;;;3.75;1.75;;;;;;;;;;5046369;28;21970;-78
2023/07/05 02:33:43;;;;;;;1.85;1.52;;;;;;;;;;5047591;28;20079;-79
2023/07/05 02:36:11;;;;;;;3.65;1.38;;;;;;;;;;5047036;28;20050;-78
2023/07/05 02:38:37;;;;;;;3.53;1.48;;;;;;;;;;5044980;28;20025;-77
2023/07/05 02:41:03;;;;;;;2.53;1.48;;;;;;;;;;5048578;28;20074;-77
2023/07/05 02:43:29;;;;;;;6.53;1.55;;;;;;;;;;5050117;28;20055;-78
2023/07/05 02:45:55;;;;;;;2.63;1.77;;;;;;;;;;5052079;28;20049;-77
2023/07/05 02:48:21;;;;;;;1.98;1.60;;;;;;;;;;5059569;28;20043;-77
2023/07/05 02:50:47;;;;;;;2.10;1.40;;;;;;;;;;5048818;28;20147;-77
2023/07/05 02:53:12;;;;;;;3.22;1.75;;;;;;;;;;5050934;28;20131;-78
2023/07/05 02:55:38;;;;;;;1.48;1.30;;;;;;;;;;5065987;28;20037;-78
2023/07/05 02:58:04;;;;;;;1.45;1.15;;;;;;;;;;5053620;28;20025;-78
2023/07/05 03:00:31;;;;;;;2.22;1.42;;;;;;;;;;5048460;28;20032;-78
2023/07/05 03:02:57;;;;;;;2.45;1.85;;;;;;;;;;5047710;28;20072;-77
2023/07/05 03:05:23;;;;;;;1.92;1.40;;;;;;;;;;5049926;28;20111;-78
2023/07/05 03:07:49;;;;;;;2.20;1.23;;;;;;;;;;5049514;28;20025;-78
2023/07/05 03:10:15;;;;;;;2.42;1.30;;;;;;;;;;5048539;28;20440;-78
2023/07/05 03:12:41;;;;;;;2.78;1.60;;;;;;;;;;5049388;28;20025;-78
2023/07/05 03:15:07;;;;;;;2.20;1.30;;;;;;;;;;5046717;28;20028;-78
2023/07/05 03:17:34;;;;;;;1.83;1.48;;;;;;;;;;5050088;28;20384;-78
2023/07/05 03:20:00;;;;;;;1.85;1.27;;;;;;;;;;5044612;28;20373;-78
2023/07/05 03:22:27;;;;;;;2.40;1.60;;;;;;;;;;5049808;28;20548;-78
2023/07/05 03:24:53;;;;;;;1.92;1.52;;;;;;;;;;5042848;28;20495;-78
2023/07/05 03:27:19;;;;;;;3.45;1.52;;;;;;;;;;5056478;28;20032;-78
2023/07/05 03:29:45;;;;;;;1.40;1.05;;;;;;;;;;5043892;28;20471;-78
2023/07/05 03:32:11;;;;;;;2.95;1.67;;;;;;;;;;5049522;28;20083;-78
2023/07/05 03:34:37;;;;;;;2.05;1.42;;;;;;;;;;5037191;28;20037;-78
2023/07/05 03:37:03;;;;;;;1.33;1.23;;;;;;;;;;5050861;28;20033;-78
2023/07/05 03:39:42;;;;;;;1.85;1.33;;;;;;;;;;5045998;28;20029;-78
2023/07/05 03:42:08;;;;;;;2.38;1.67;;;;;;;;;;5051154;28;20186;-78
2023/07/05 03:44:34;;;;;;;1.05;1.00;;;;;;;;;;5053372;28;20041;-78
2023/07/05 03:47:00;;;;;;;3.40;1.35;;;;;;;;;;5043305;28;20465;-78
2023/07/05 03:49:25;;;;;;;1.45;1.35;;;;;;;;;;5054528;28;20143;-77
2023/07/05 03:51:51;;;;;;;2.47;1.40;;;;;;;;;;5058879;28;20548;-78
2023/07/05 03:54:18;;;;;;;4.32;1.67;;;;;;;;;;5035951;28;20397;-78
2023/07/05 03:56:44;;;;;;;1.30;1.20;;;;;;;;;;5030965;28;20034;-77
2023/07/05 03:59:11;;;;;;;1.90;1.30;;;;;;;;;;5040987;28;20064;-78
2023/07/05 04:01:37;;;;;;;5.88;1.70;;;;;;;;;;5049655;28;20087;-78
2023/07/05 04:04:03;;;;;;;1.55;1.10;;;;;;;;;;5040431;28;20028;-79
2023/07/05 04:06:31;;;;;;;3.03;1.73;;;;;;;;;;5054879;28;20111;-78
2023/07/05 04:08:57;;;;;;;2.35;1.60;;;;;;;;;;5050724;28;20033;-79
2023/07/05 04:11:24;;;;;;;1.92;1.42;;;;;;;;;;5061047;28;20032;-78
2023/07/05 04:13:52;;;;;;;2.10;1.25;;;;;;;;;;5044364;28;20085;-78
2023/07/05 04:16:19;;;;;;;2.92;1.48;;;;;;;;;;5044132;28;20112;-79
2023/07/05 04:18:46;;;;;;;1.92;1.30;;;;;;;;;;5037644;28;20045;-79
2023/07/05 04:21:12;;;;;;;6.03;2.28;;;;;;;;;;5052713;28;20116;-78
2023/07/05 04:23:39;;;;;;;3.78;2.25;;;;;;;;;;5035014;28;20032;-78
2023/07/05 04:26:06;;;;;;;1.42;1.20;;;;;;;;;;5046228;28;20498;-78
2023/07/05 04:28:33;;;;;;;2.92;1.77;;;;;;;;;;5041899;28;20025;-79
2023/07/05 04:30:59;;;;;;;2.67;1.40;;;;;;;;;;5053893;28;20054;-78
2023/07/05 04:33:25;;;;;;;2.65;1.52;;;;;;;;;;5036853;28;20033;-78
2023/07/05 04:35:52;;;;;;;4.05;1.30;;;;;;;;;;5055815;28;20035;-78
2023/07/05 04:38:18;;;;;;;2.22;1.30;;;;;;;;;;5050647;28;20025;-78
2023/07/05 04:40:44;;;;;;;1.40;1.30;;;;;;;;;;5058176;28;20032;-78
2023/07/05 04:43:10;;;;;;;2.67;1.40;;;;;;;;;;5052325;28;20501;-79
2023/07/05 04:45:36;;;;;;;3.03;1.20;;;;;;;;;;5040063;28;20084;-78
2023/07/05 04:48:02;;;;;;;1.90;1.40;;;;;;;;;;5050028;28;20017;-79
2023/07/05 04:50:28;;;;;;;2.10;1.48;;;;;;;;;;5049701;28;20031;-78
2023/07/05 04:52:55;;;;;;;3.38;1.55;;;;;;;;;;5050124;28;20025;-78
2023/07/05 04:55:21;;;;;;;2.47;1.25;;;;;;;;;;5049506;28;20033;-78
2023/07/05 04:57:47;;;;;;;1.55;1.30;;;;;;;;;;5049843;28;20029;-79
2023/07/05 05:00:13;;;;;;;4.05;1.58;;;;;;;;;;5048914;28;20365;-78
2023/07/05 05:02:39;;;;;;;4.78;1.30;;;;;;;;;;5049766;28;20025;-78
2023/07/05 05:05:06;;;;;;;4.47;1.45;;;;;;;;;;5048639;28;20120;-78
2023/07/05 05:07:32;;;;;;;1.42;1.30;;;;;;;;;;5049586;28;20100;-79
2023/07/05 05:09:59;;;;;;;1.55;1.23;;;;;;;;;;5049496;28;20480;-78
2023/07/05 05:12:25;;;;;;;1.42;1.25;;;;;;;;;;5049550;28;20036;-78
2023/07/05 05:14:51;;;;;;;2.58;1.27;;;;;;;;;;5051823;28;20064;-78
2023/07/05 05:17:17;;;;;;;2.60;1.48;;;;;;;;;;5038599;28;20029;-78
2023/07/05 05:19:43;;;;;;;3.08;1.50;;;;;;;;;;5045700;28;20053;-78
2023/07/05 05:22:12;;;;;;;2.83;1.33;;;;;;;;;;5056463;28;20029;-78
2023/07/05 05:24:41;;;;;;;3.00;1.20;;;;;;;;;;5048719;28;20492;-79
2023/07/05 05:27:07;;;;;;;2.38;1.23;;;;;;;;;;5049085;28;20159;-78
2023/07/05 05:29:33;;;;;;;2.60;1.73;;;;;;;;;;5047755;28;20037;-78
2023/07/05 05:31:59;;;;;;;4.22;1.30;;;;;;;;;;5049300;28;20104;-78
2023/07/05 05:34:25;;;;;;;2.95;1.20;;;;;;;;;;5040532;28;20662;-78
2023/07/05 05:36:52;;;;;;;2.70;1.33;;;;;;;;;;5040604;28;20060;-77
2023/07/05 05:39:18;;;;;;;2.05;1.50;;;;;;;;;;5029233;28;20461;-80
2023/07/05 05:41:44;;;;;;;1.45;1.17;;;;;;;;;;5028905;28;20014;-79
2023/07/05 05:44:10;;;;;;;1.50;1.40;;;;;;;;;;5037178;28;20033;-79
2023/07/05 05:46:36;;;;;;;1.38;1.13;;;;;;;;;;5032320;28;20044;-78
2023/07/05 05:49:02;;;;;;;3.42;1.40;;;;;;;;;;5053764;28;20048;-78
2023/07/05 05:51:28;;;;;;;4.78;1.70;;;;;;;;;;5040378;28;20044;-79
2023/07/05 05:53:55;;;;;;;1.58;1.10;;;;;;;;;;5028913;28;20044;-79
2023/07/05 05:56:21;;;;;;;2.20;1.50;;;;;;;;;;5028835;28;20599;-79
2023/07/05 05:58:47;;;;;;;2.50;1.00;;;;;;;;;;5042428;28;20078;-79
2023/07/05 06:01:13;;;;;;;1.95;1.45;;;;;;;;;;5028797;28;20033;-78
2023/07/05 06:03:39;;;;;;;3.00;1.70;;;;;;;;;;5028469;28;20056;-79
2023/07/05 06:06:05;;;;;;;1.25;1.15;;;;;;;;;;5029092;28;20029;-79
2023/07/05 06:08:33;;;;;;;1.98;1.50;;;;;;;;;;5043278;28;20121;-78
2023/07/05 06:11:03;;;;;;;1.92;1.30;;;;;;;;;;5061316;28;20020;-80
2023/07/05 06:13:29;;;;;;;1.23;1.10;;;;;;;;;;5031030;28;20044;-80
2023/07/05 06:15:59;;;;;;;1.52;1.40;;;;;;;;;;5028265;28;20507;-80
2023/07/05 06:18:31;;;;;;;1.88;1.40;;;;;;;;;;5035511;28;20086;-78
2023/07/05 06:20:57;;;;;;;1.70;1.40;;;;;;;;;;5050610;28;20049;-80
2023/07/05 06:23:23;;;;;;;1.92;1.27;;;;;;;;;;5038977;28;20028;-78
2023/07/05 06:25:50;;;;;;;5.68;1.52;;;;;;;;;;5028701;28;20091;-78
2023/07/05 06:28:17;;;;;;;2.42;1.30;;;;;;;;;;5045751;28;20048;-80
2023/07/05 06:30:44;;;;;;;1.83;1.67;;;;;;;;;;5035678;28;20034;-81
2023/07/05 06:33:12;;;;;;;1.65;1.35;;;;;;;;;;5028630;28;20484;-81
2023/07/05 06:35:40;;;;;;;2.15;1.55;;;;;;;;;;5028627;28;20022;-80
2023/07/05 06:38:06;;;;;;;2.47;1.90;;;;;;;;;;5028712;28;20029;-78
2023/07/05 06:40:32;;;;;;;1.63;1.42;;;;;;;;;;5031551;28;20033;-80
2023/07/05 06:43:00;;;;;;;5.40;1.58;;;;;;;;;;5028744;28;20021;-82
2023/07/05 06:45:49;;;;;;;1.75;1.20;;;;;;;;;;5038883;28;20032;-82
2023/07/05 06:48:15;;;;;;;2.33;1.60;;;;;;;;;;5033077;28;20059;-79
2023/07/05 06:50:41;;;;;;;2.13;1.40;;;;;;;;;;5048180;28;20237;-80
2023/07/05 06:53:07;;;;;;;1.90;1.60;;;;;;;;;;5048241;28;20025;-79
2023/07/05 06:55:32;;;;;;;2.25;1.35;;;;;;;;;;5047926;28;20032;-81
2023/07/05 06:57:58;;;;;;;2.65;1.30;;;;;;;;;;5044890;28;20037;-80
2023/07/05 07:00:24;;;;;;;2.20;1.52;;;;;;;;;;5031552;28;20022;-81
2023/07/05 07:02:50;;;;;;;2.15;1.60;;;;;;;;;;5027872;28;20476;-81
2023/07/05 07:05:16;;;;;;;2.67;1.35;;;;;;;;;;5028411;28;20556;-81
2023/07/05 07:07:42;;;;;;;2.90;1.40;;;;;;;;;;5036538;28;20082;-81
2023/07/05 07:10:08;;;;;;;3.53;1.40;;;;;;;;;;5045310;28;20049;-81
2023/07/05 07:12:35;;;;;;;4.55;1.45;;;;;;;;;;5044365;28;20116;-80
2023/07/05 07:15:01;;;;;;;2.22;1.58;;;;;;;;;;5036609;28;20037;-83
2023/07/05 07:17:27;;;;;;;2.08;1.20;;;;;;;;;;5028154;28;20104;-81
2023/07/05 07:19:52;;;;;;;2.50;1.65;;;;;;;;;;5040530;28;20132;-82
2023/07/05 07:22:18;;;;;;;8.38;1.67;;;;;;;;;;5036456;28;20025;-82
2023/07/05 07:24:44;;;;;;;2.55;1.40;;;;;;;;;;5032326;28;20025;-82
2023/07/05 07:27:10;;;;;;;2.42;1.67;;;;;;;;;;5048969;28;20028;-81
2023/07/05 07:29:36;;;;;;;2.15;1.25;;;;;;;;;;5051046;28;20051;-81
2023/07/05 07:32:03;;;;;;;4.28;1.80;;;;;;;;;;5049689;28;20096;-81
2023/07/05 07:34:31;;;;;;;1.77;1.17;;;;;;;;;;5051337;28;20395;-81
2023/07/05 07:36:57;;;;;;;6.00;2.38;;;;;;;;;;5041065;28;20030;-82
2023/07/05 07:39:23;;;;;;;4.20;1.35;;;;;;;;;;5031267;28;20025;-81
2023/07/05 07:41:49;;;;;;;3.50;1.40;;;;;;;;;;5031063;28;20117;-82
2023/07/05 07:44:17;;;;;;;2.13;1.20;;;;;;;;;;5045947;28;20100;-81
2023/07/05 07:46:43;;;;;;;4.93;1.50;;;;;;;;;;5040992;28;20034;-81
2023/07/05 07:49:11;;;;;;;2.45;1.70;;;;;;;;;;5045938;28;20032;-81
2023/07/05 07:51:37;;;;;;;1.65;1.40;;;;;;;;;;5041394;28;20568;-80
2023/07/05 07:54:04;;;;;;;2.53;1.58;;;;;;;;;;5052198;28;20029;-82
2023/07/05 07:56:30;;;;;;;1.77;1.50;;;;;;;;;;5040894;28;20277;-82
2023/07/05 07:58:58;;;;;;;3.25;1.58;;;;;;;;;;5031947;28;20088;-82
2023/07/05 08:01:34;;;;;;;2.63;1.75;;;;;;;;;;5033913;28;20490;-82
2023/07/05 08:04:02;;;;;;;1.88;1.45;;;;;;;;;;5037273;28;20549;-82
2023/07/05 08:06:29;;;;;;;3.38;1.98;;;;;;;;;;5039500;28;20040;-81
2023/07/05 08:08:55;;;;;;;2.88;1.55;;;;;;;;;;5031669;28;20018;-82
2023/07/05 08:11:21;;;;;;;3.10;1.67;;;;;;;;;;5044126;28;20043;-82
2023/07/05 08:13:48;;;;;;;2.75;1.30;;;;;;;;;;5045721;28;20029;-81
2023/07/05 08:16:14;;;;;;;3.03;1.52;;;;;;;;;;5045364;28;20029;-83
2023/07/05 08:18:40;;;;;;;2.13;1.65;;;;;;;;;;5031776;28;20047;-82
2023/07/05 08:21:06;;;;;;;4.70;1.60;;;;;;;;;;5056247;28;20747;-81
2023/07/05 08:23:32;;;;;;;2.90;1.58;;;;;;;;;;5049670;28;20032;-82
2023/07/05 08:26:00;;;;;;;2.03;1.52;;;;;;;;;;5048618;28;20053;-81
2023/07/05 08:28:26;;;;;;;3.30;2.00;;;;;;;;;;5043773;28;20114;-81
2023/07/05 08:30:56;;;;;;;3.42;1.55;;;;;;;;;;5031111;28;20034;-82
2023/07/05 08:33:23;;;;;;;2.83;1.52;;;;;;;;;;5039744;28;20078;-81
2023/07/05 08:35:52;;;;;;;2.90;1.90;;;;;;;;;;5048118;28;20037;-82
2023/07/05 08:38:18;;;;;;;4.03;1.65;;;;;;;;;;5031396;28;20034;-83
2023/07/05 08:40:48;;;;;;;2.20;1.63;;;;;;;;;;5031458;28;20049;-83
2023/07/05 08:43:22;;;;;;;3.00;1.85;;;;;;;;;;5031358;28;20025;-81
2023/07/05 08:45:52;;;;;;;4.28;2.30;;;;;;;;;;5032322;28;20032;-81
2023/07/05 08:48:18;;;;;;;2.33;1.52;;;;;;;;;;5040854;28;20035;-81
2023/07/05 08:50:45;;;;;;;2.75;1.77;;;;;;;;;;5046305;28;20056;-82
2023/07/05 08:53:14;;;;;;;1.58;1.33;;;;;;;;;;5047773;28;20043;-82
2023/07/05 08:55:48;;;;;;;4.78;1.73;;;;;;;;;;5033391;28;20515;-82
2023/07/05 08:58:21;;;;;;;2.08;1.50;;;;;;;;;;5042397;28;20039;-82
2023/07/05 09:00:50;;;;;;;2.88;1.80;;;;;;;;;;5050652;28;20082;-81
2023/07/05 09:03:17;;;;;;;2.97;2.10;;;;;;;;;;5042429;28;20134;-82
2023/07/05 09:05:47;;;;;;;4.93;2.15;;;;;;;;;;5030993;28;20062;-81
2023/07/05 09:08:16;;;;;;;2.43;1.80;;;;;;;;;;5030650;28;20021;-81
2023/07/05 09:10:53;;;;;;;2.75;1.95;;;;;;;;;;5041816;28;20769;-81
2023/07/05 09:13:29;;;;;;;2.13;1.50;;;;;;;;;;5049865;28;20152;-82
2023/07/05 09:16:00;;;;;;;3.20;2.08;;;;;;;;;;5050692;28;20501;-81
2023/07/05 09:18:41;;;;;;;1.83;1.67;;;;;;;;;;5032549;28;20679;-82
2023/07/05 09:21:09;;;;;;;4.97;1.98;;;;;;;;;;5050226;28;20053;-82
2023/07/05 09:23:44;;;;;;;2.75;1.50;;;;;;;;;;5046034;28;20029;-84
2023/07/05 09:26:20;;;;;;;3.30;1.67;;;;;;;;;;5047056;28;20028;-81
2023/07/05 09:28:50;;;;;;;3.70;2.10;;;;;;;;;;5040847;28;20021;-82
2023/07/05 09:31:17;;;;;;;2.97;1.80;;;;;;;;;;5048171;28;20025;-81
2023/07/05 09:33:47;;;;;;;5.00;2.50;;;;;;;;;;5042119;28;20024;-81
2023/07/05 09:36:21;;;;;;;3.22;1.95;;;;;;;;;;5048884;28;20056;-81
2023/07/05 09:38:48;;;;;;;3.03;1.92;;;;;;;;;;5050159;28;20039;-81
2023/07/05 09:41:18;;;;;;;3.45;2.03;;;;;;;;;;5050155;28;20029;-82
2023/07/05 09:43:47;;;;;;;3.42;2.00;;;;;;;;;;5049497;28;20040;-82
2023/07/05 09:46:21;;;;;;;6.25;1.90;;;;;;;;;;5043913;28;20022;-83
2023/07/05 09:48:47;;;;;;;4.13;1.80;;;;;;;;;;5031057;28;20022;-82
2023/07/05 09:51:13;;;;;;;2.72;1.83;;;;;;;;;;5050384;28;20045;-82
2023/07/05 09:53:48;;;;;;;2.80;1.80;;;;;;;;;;5035971;28;20022;-83
2023/07/05 09:56:18;;;;;;;2.75;1.85;;;;;;;;;;5047521;28;20392;-83
2023/07/05 09:58:44;;;;;;;1.98;1.60;;;;;;;;;;5049962;28;20458;-84
2023/07/05 10:01:16;;;;;;;3.35;2.10;;;;;;;;;;5049777;28;20043;-83
2023/07/05 10:03:41;;;;;;;;;;;;;;;;;;5032758;28;20170;-83
2023/07/05 10:06:11;;;;;;;3.45;2.10;;;;;;;;;;5030367;28;19972;-81
2023/07/05 10:08:44;;;;;;;3.45;2.33;;;;;;;;;;5034312;28;20017;-83
2023/07/05 10:11:27;;;;;;;2.80;1.90;;;;;;;;;;5040242;28;20439;-83
2023/07/05 10:14:06;;;;;;;4.15;2.28;;;;;;;;;;5040965;28;20043;-81
2023/07/05 10:16:48;;;;;;;3.45;2.10;;;;;;;;;;5045698;28;20158;-80
2023/07/05 10:19:24;;;;;;;3.72;2.10;;;;;;;;;;5050779;28;20037;-81
2023/07/05 10:21:58;;;;;;;2.42;1.50;;;;;;;;;;5036593;28;20037;-82
2023/07/05 10:24:24;;;;;;;4.57;2.38;;;;;;;;;;5040877;28;20032;-82
2023/07/05 10:27:01;;;;;;;3.10;2.20;;;;;;;;;;5038634;28;20116;-83
2023/07/05 10:29:27;;;;;;;2.17;1.83;;;;;;;;;;5047034;28;20029;-83
2023/07/05 10:31:58;;;;;;;3.25;1.80;;;;;;;;;;5030109;28;20112;-84
2023/07/05 10:34:24;;;;;;;2.47;1.60;;;;;;;;;;5034544;28;20191;-82
2023/07/05 10:36:54;;;;;;;3.53;1.80;;;;;;;;;;5039766;28;20029;-81
2023/07/05 10:39:26;;;;;;;3.72;1.60;;;;;;;;;;5045376;28;20032;-82
2023/07/05 10:41:53;;;;;;;2.30;1.67;;;;;;;;;;5045579;28;20069;-83
2023/07/05 10:44:27;;;;;;;3.13;2.10;;;;;;;;;;5049049;28;20032;-83
2023/07/05 10:46:55;;;;;;;4.13;2.38;;;;;;;;;;5037204;28;20029;-81
2023/07/05 10:49:21;;;;;;;2.95;1.88;;;;;;;;;;5031004;28;20034;-83
2023/07/05 10:51:50;;;;;;;3.17;2.00;;;;;;;;;;5030215;28;20729;-83
2023/07/05 10:54:22;;;;;;;3.80;2.03;;;;;;;;;;5038992;28;20111;-82
2023/07/05 10:56:48;;;;;;;3.83;2.00;;;;;;;;;;5048613;28;20412;-82
2023/07/05 10:59:33;;;;;;;2.10;1.60;;;;;;;;;;5029735;28;20030;-81
2023/07/05 11:02:01;;;;;;;2.75;1.55;;;;;;;;;;5030603;28;20029;-81
2023/07/05 11:04:29;;;;;;;4.30;2.40;;;;;;;;;;5034248;28;20102;-82
2023/07/05 11:07:00;;;;;;;4.93;2.13;;;;;;;;;;5043975;28;20032;-82
2023/07/05 11:09:26;;;;;;;;;;;;;;;;;;5034065;28;20103;-82
2023/07/05 11:11:55;;;;;;;3.97;2.03;;;;;;;;;;5052586;28;19905;-84
2023/07/05 11:14:23;;;;;;;3.05;2.05;;;;;;;;;;5039718;28;20025;-83
2023/07/05 11:16:49;;;;;;;3.53;1.65;;;;;;;;;;5039220;28;20044;-81
2023/07/05 11:19:16;;;;;;;3.67;1.58;;;;;;;;;;5043636;28;20037;-81
2023/07/05 11:21:44;;;;;;;4.80;1.92;;;;;;;;;;5053394;28;20029;-82
2023/07/05 11:24:11;;;;;;;2.45;1.55;;;;;;;;;;5053678;28;20053;-82
2023/07/05 11:26:41;;;;;;;4.45;1.92;;;;;;;;;;5053345;28;20539;-82
2023/07/05 11:29:25;;;;;;;3.63;1.77;;;;;;;;;;5053213;28;20036;-82
2023/07/05 11:31:55;;;;;;;2.65;1.63;;;;;;;;;;5053081;28;20272;-82
2023/07/05 11:34:20;;;;;;;3.63;1.60;;;;;;;;;;5052366;28;20116;-82
2023/07/05 11:36:51;;;;;;;2.95;1.95;;;;;;;;;;5052201;28;20549;-83
2023/07/05 11:39:40;;;;;;;2.22;1.70;;;;;;;;;;5050640;28;20071;-84
2023/07/05 11:42:15;;;;;;;2.47;1.63;;;;;;;;;;5052638;28;20044;-84
2023/07/05 11:44:42;;;;;;;2.03;1.80;;;;;;;;;;5040416;28;20047;-82
2023/07/05 11:47:10;;;;;;;1.85;1.50;;;;;;;;;;5052723;28;20025;-81
2023/07/05 11:49:41;;;;;;;6.38;1.85;;;;;;;;;;5051704;28;20063;-83
2023/07/05 11:52:16;;;;;;;2.63;1.45;;;;;;;;;;5040683;28;20025;-85
2023/07/05 11:54:45;;;;;;;5.13;2.25;;;;;;;;;;5043563;28;20025;-84
2023/07/05 11:57:12;;;;;;;3.60;2.00;;;;;;;;;;5050766;28;20124;-84
2023/07/05 11:59:49;;;;;;;5.35;2.30;;;;;;;;;;5052011;28;20066;-82
2023/07/05 12:02:35;;;;;;;3.42;1.60;;;;;;;;;;5046566;28;20388;-80
2023/07/05 12:05:06;;;;;;;2.45;1.55;;;;;;;;;;5031566;28;20033;-82
2023/07/05 12:07:38;;;;;;;1.80;1.50;;;;;;;;;;5032925;28;20035;-82
2023/07/05 12:10:08;;;;;;;2.42;1.58;;;;;;;;;;5035842;28;20029;-82
2023/07/05 12:12:39;;;;;;;2.33;1.63;;;;;;;;;;5030857;28;20080;-80
2023/07/05 12:15:05;;;;;;;2.33;1.48;;;;;;;;;;5046636;28;20021;-81
2023/07/05 12:17:31;;;;;;;2.20;1.58;;;;;;;;;;5031249;28;20051;-82
2023/07/05 12:19:57;;;;;;;4.68;2.17;;;;;;;;;;5040198;28;20057;-82
2023/07/05 12:22:25;;;;;;;2.80;1.33;;;;;;;;;;5041749;28;20075;-82
2023/07/05 12:24:52;;;;;;;1.85;1.55;;;;;;;;;;5039959;28;20037;-80
2023/07/05 12:27:26;;;;;;;3.30;1.60;;;;;;;;;;5045400;28;20488;-82
2023/07/05 12:29:53;;;;;;;3.05;1.45;;;;;;;;;;5051202;28;20414;-81
2023/07/05 12:32:21;;;;;;;2.17;1.58;;;;;;;;;;5038635;28;20124;-82
2023/07/05 12:34:47;;;;;;;2.83;1.50;;;;;;;;;;5040424;28;20032;-82
2023/07/05 12:37:30;;;;;;;1.85;1.25;;;;;;;;;;5050516;28;20052;-81
2023/07/05 12:40:12;;;;;;;2.65;1.80;;;;;;;;;;5050593;28;20029;-81
2023/07/05 12:43:04;;;;;;;1.63;1.27;;;;;;;;;;5049222;28;20025;-81
2023/07/05 12:45:30;;;;;;;1.98;1.48;;;;;;;;;;5054682;28;20059;-81
2023/07/05 12:47:56;;;;;;;1.98;1.42;;;;;;;;;;5030012;28;20464;-85
2023/07/05 12:50:23;;;;;;;1.92;1.10;;;;;;;;;;5045074;28;20025;-81
2023/07/05 12:53:01;;;;;;;2.78;1.40;;;;;;;;;;5042054;28;20476;-81
2023/07/05 12:55:28;;;;;;;1.88;1.02;;;;;;;;;;5051592;28;20380;-82
2023/07/05 12:57:55;;;;;;;1.45;1.35;;;;;;;;;;5046495;28;20076;-79
2023/07/05 13:00:21;;;;;;;1.58;1.40;;;;;;;;;;5030142;28;20037;-83
2023/07/05 13:02:47;;;;;;;1.50;1.20;;;;;;;;;;5032718;28;20063;-84
2023/07/05 13:05:14;;;;;;;1.88;1.25;;;;;;;;;;5031619;28;20052;-83
2023/07/05 13:07:41;;;;;;;2.40;1.50;;;;;;;;;;5039146;28;20024;-83
2023/07/05 13:10:08;;;;;;;2.35;1.50;;;;;;;;;;5059256;28;20029;-82
2023/07/05 13:12:44;;;;;;;1.40;1.00;;;;;;;;;;5029615;28;20603;-82
2023/07/05 13:15:10;;;;;;;1.70;1.20;;;;;;;;;;5042588;28;20033;-82
2023/07/05 13:17:36;;;;;;;1.02;0.93;;;;;;;;;;5040644;28;20046;-80
2023/07/05 13:20:05;;;;;;;2.40;1.00;;;;;;;;;;5041377;28;20131;-81
2023/07/05 13:22:31;;;;;;;1.77;1.55;;;;;;;;;;5047643;28;20120;-80
2023/07/05 13:24:58;;;;;;;1.30;0.90;;;;;;;;;;5048377;28;20036;-80
2023/07/05 13:27:28;;;;;;;3.78;1.77;;;;;;;;;;5032389;28;20296;-80
2023/07/05 13:29:55;;;;;;;1.65;1.17;;;;;;;;;;5042847;28;20021;-82
2023/07/05 13:32:23;;;;;;;2.92;1.27;;;;;;;;;;5044260;28;20045;-82
2023/07/05 13:34:48;;;;;;;1.40;1.20;;;;;;;;;;5048867;28;20029;-81
2023/07/05 13:37:16;;;;;;;1.55;1.05;;;;;;;;;;5047799;28;20040;-81
2023/07/05 13:39:42;;;;;;;2.38;1.45;;;;;;;;;;5048671;28;20040;-82
2023/07/05 13:42:11;;;;;;;1.35;1.00;;;;;;;;;;5042955;28;20025;-81
2023/07/05 13:44:37;;;;;;;2.20;1.30;;;;;;;;;;5043168;28;20056;-83
2023/07/05 13:47:03;;;;;;;1.10;0.90;;;;;;;;;;5043003;28;20110;-83
2023/07/05 13:49:29;;;;;;;1.27;0.90;;;;;;;;;;5039026;28;20242;-84
2023/07/05 13:51:57;;;;;;;1.00;0.90;;;;;;;;;;5041214;28;20022;-81
2023/07/05 13:54:23;;;;;;;2.40;1.33;;;;;;;;;;5029726;28;20039;-76
2023/07/05 13:56:49;;;;;;;1.60;1.23;;;;;;;;;;5031549;28;20055;-78
2023/07/05 13:59:17;;;;;;;1.67;1.15;;;;;;;;;;5047968;28;20033;-83
2023/07/05 14:01:43;;;;;;;1.92;1.25;;;;;;;;;;5029103;28;20472;-82
2023/07/05 14:04:11;;;;;;;2.00;1.10;;;;;;;;;;5029254;28;20485;-83
2023/07/05 14:06:37;;;;;;;1.08;0.93;;;;;;;;;;5029060;28;20572;-84
2023/07/05 14:09:03;;;;;;;1.73;1.20;;;;;;;;;;5038183;28;20104;-80
2023/07/05 14:11:31;;;;;;;3.53;1.85;;;;;;;;;;5038489;28;20455;-78
2023/07/05 14:14:00;;;;;;;1.27;1.15;;;;;;;;;;5049885;28;20041;-80
2023/07/05 14:16:26;;;;;;;1.98;1.20;;;;;;;;;;5029385;28;20021;-78
2023/07/05 14:18:52;;;;;;;4.32;1.35;;;;;;;;;;5029407;28;20617;-78
2023/07/05 14:21:19;;;;;;;5.97;1.70;;;;;;;;;;5045925;28;20135;-79
2023/07/05 14:23:45;;;;;;;6.60;1.70;;;;;;;;;;5032755;28;20103;-79
2023/07/05 14:26:14;;;;;;;6.75;1.70;;;;;;;;;;5042883;28;20036;-78
2023/07/05 14:28:40;;;;;;;6.25;1.92;;;;;;;;;;5049991;28;20471;-81
2023/07/05 14:31:09;;;;;;;11.05;2.42;;;;;;;;;;5042317;28;20033;-77
2023/07/05 14:33:35;;;;;;;7.75;2.00;;;;;;;;;;5049427;28;20021;-79
2023/07/05 14:36:02;;;;;;;5.68;1.90;;;;;;;;;;5042350;28;20025;-79
2023/07/05 14:38:27;;;;;;;40.92;4.68;;;;;;;;;;5050607;28;20475;-77
2023/07/05 14:40:54;;;;;;;21.85;3.08;;;;;;;;;;5051927;28;20036;-77
2023/07/05 14:43:20;;;;;;;9.05;3.08;;;;;;;;;;5052981;28;20029;-78
2023/07/05 14:45:46;;;;;;;20.08;4.30;;;;;;;;;;5052817;28;20033;-77
2023/07/05 14:48:12;;;;;;;23.25;2.42;;;;;;;;;;5048570;28;20039;-78
2023/07/05 14:50:38;;;;;;;10.45;1.65;;;;;;;;;;5065474;28;20033;-77